Hub


Voltar

 INFORMAÇÕES METEOROLÓGICAS

METAR FOR GCGM


ADDS - METARS form results

(0121 UTC 27 March 2019)
Data provider http://aviationweather.gov/metar/data/
 
METAR text: GCGM 270100Z AUTO VRB02KT 9999 NCD 17/11 Q1013 RMK R09/31004KT 260V350 ARP/32005KT 220V020
Conditions at: GCGM (LA GOMERA ARPT , ES) observed 0100 UTC 27 March 2019
Temperature: 17.0°C (63°F)
Dewpoint: 11.0°C (52°F) [RH = 68%]
Pressure (altimeter): 29.91 inches Hg (1013.0 mb)
Winds: variable direction winds at 2 MPH (2 knots; 1.0 m/s)
Visibility: 6 or more miles (10+ km)
Ceiling: at least 12,000 feet AGL
Clouds: sky clear below 12,000 feet AGL
Weather: no significant weather observed at this time

METAR text: GCGM 270030Z AUTO 28005KT 210V320 9999 NCD 17/11 Q1013 RMK R09/31004KT 250V010 ARP/30005KT 240V350
Conditions at: GCGM (LA GOMERA ARPT , ES) observed 0030 UTC 27 March 2019
Temperature: 17.0°C (63°F)
Dewpoint: 11.0°C (52°F) [RH = 68%]
Pressure (altimeter): 29.91 inches Hg (1013.0 mb)
Winds: from the W (280 degrees) at 6 MPH (5 knots; 2.6 m/s)
Visibility: 6 or more miles (10+ km)
Ceiling: at least 12,000 feet AGL
Clouds: sky clear below 12,000 feet AGL
Weather: no significant weather observed at this time

Forecast for: GCGM (LA GOMERA ARPT , ES)
Text: TAF GCGM 262000Z 2621/2721 VRB04KT 9999 FEW030 TX21/2714Z TN16/2706Z
Forecast period: 2100 UTC 26 March 2019 to 2100 UTC 27 March 2019
Forecast type: FROM: standard forecast or significant change
Winds: variable direction winds at 5 MPH (4 knots; 2.1 m/s)
Visibility: 6 or more miles 10+ km)
Ceiling: at least 12,000 feet AGL
Clouds: few clouds at 3000 feet AGL
Weather: no significant weather forecast for this period


 MAPA DO AEROPORTO


 INFORMAÇÕES DA PISTA

Pista 09 Tamanho da pista 4921 ft Largura da pista 98 ft
Elevação da pista 716 ft Ranhura da pista 0 ft Proa da pista 81
Pista 27 Tamanho da pista 4921 ft Largura da pista 98 ft
Elevação da pista 712 ft Ranhura da pista 0 ft Proa da pista 261

 FREQUÊNCIAS DO AEROPORTO

Tipo GND Nome GND Frequência 121.7 MHZ
Tipo TWR Nome TWR Frequência 118.4 MHZ

 AUXÍLIOS DE NAVEGAÇÃO PRÓXIMOS AO AEROPORTO

Tipo VOR-DME Nome La Gomera Frequência 116000 KHZ